Enter the Airport ICAO Code

Search by Airport or City

Current Weather

SBGL | Rio de Janeiro–Galeão International Airport

Rio de Janeiro, Brazil

Last Update 58 Minutes Ago

Clear Sky

Temperature of 21 ºC

Light Winds from East

Temperature

21 ºC

Dew Point Temperature

17 ºC

Relative Humidity

78.03 %

Wind Direction

East (070º, Without Significant Variations)

Wind Velocity

6 km/h (03 kt)

Gusts

None

Visibility

No Significant Reductions

Sea Level Pressure

1015 hPa (Hectopascals)

Layers of Clouds

None

METAR SBGL 131100Z 07003KT CAVOK 21/17 Q1015

Weather Forecast

SBGL | Rio de Janeiro–Galeão International Airport

Rio de Janeiro, Brazil

Forecast valid for the next 30 Hours

From now on it is expected:

Clear Sky

Light to Moderate Winds from North

In 1 to 3 hours it is expected the begining of:

Partly Cloudy Sky

Light to Moderate Winds from SouthWest

In 18 hours it is expected the begining of 6 hours with intermittent periods of:

Rain

In 24 hours it is expected the begining of 6 hours with intermittent periods of:

Rain

Light to Moderate Winds from South

Maximum Temperature

33 ºC in 5 Hours

Minimum Temperature

14 ºC in 20 Hours

TAF SBGL 130900Z 1312/1418 35008KT CAVOK TX33/1317Z TN14/1408Z BECMG 1313/1315 24008KT 9999 SCT030 PROB40 TEMPO 1406/1412 8000 RA BKN008 BKN030 PROB40 TEMPO 1412/1418 17008KT 7000 RA BKN012 BKN025 RMK PEL